Time;durP1;ratioP1;P1;durP2;ratioP2;P2;SDS_P1;SDS_P2;PMS_P1;PMS_P2;Temp;Humidity;BMP_temperature;BMP_pressure;BME280_temperature;BME280_humidity;BME280_pressure;Samples;Min_cycle;Max_cycle;Signal;HPM_P1;HPM_P2
2023/06/25 00:01:25;;;;;;;;;;;23.80;99.90;;;;;;5094451;28;19908;-74
2023/06/25 00:03:51;;;;;;;;;;;23.80;99.90;;;;;;5094628;28;19938;-74
2023/06/25 00:06:19;;;;;;;;;;;23.80;99.90;;;;;;5094363;28;19962;-74
2023/06/25 00:08:45;;;;;;;;;;;23.80;99.90;;;;;;5094049;28;20015;-74
2023/06/25 00:11:11;;;;;;;;;;;23.80;99.90;;;;;;5094476;28;20340;-74
2023/06/25 00:13:37;;;;;;;;;;;23.70;99.90;;;;;;5094411;28;19962;-75
2023/06/25 00:16:03;;;;;;;;;;;23.60;99.90;;;;;;5094119;28;19916;-73
2023/06/25 00:18:29;;;;;;;;;;;23.60;99.90;;;;;;5094595;28;19909;-74
2023/06/25 00:20:55;;;;;;;;;;;23.60;99.90;;;;;;5094071;28;19908;-74
2023/06/25 00:23:21;;;;;;;;;;;23.60;99.90;;;;;;5093824;28;19916;-74
2023/06/25 00:25:47;;;;;;;;;;;23.60;99.90;;;;;;5076121;28;19908;-75
2023/06/25 00:28:13;;;;;;;;;;;23.50;99.90;;;;;;5094430;28;20391;-74
2023/06/25 00:30:39;;;;;;;;;;;23.50;99.90;;;;;;5093926;28;19919;-75
2023/06/25 00:33:05;;;;;;;;;;;23.50;99.90;;;;;;5093696;28;19923;-74
2023/06/25 00:35:59;;;;;;;;;;;23.50;99.90;;;;;;5094386;28;19944;-74
2023/06/25 00:38:25;;;;;;;;;;;23.60;99.90;;;;;;5093837;28;19914;-75
2023/06/25 00:40:51;;;;;;;;;;;23.60;99.90;;;;;;5075486;28;20002;-74
2023/06/25 00:43:17;;;;;;;;;;;23.60;99.90;;;;;;5094171;28;20273;-74
2023/06/25 00:45:43;;;;;;;;;;;23.60;99.90;;;;;;5093841;28;20356;-75
2023/06/25 00:48:09;;;;;;;;;;;23.60;99.90;;;;;;5094161;28;19909;-74
2023/06/25 00:50:34;;;;;;;;;;;23.50;99.90;;;;;;5093926;28;20023;-74
2023/06/25 00:53:02;;;;;;;;;;;23.50;99.90;;;;;;5094002;28;19923;-74
2023/06/25 00:55:28;;;;;;;;;;;23.50;99.90;;;;;;5093376;28;19915;-74
2023/06/25 00:57:55;;;;;;;;;;;23.40;99.90;;;;;;5093378;28;19916;-74
2023/06/25 01:00:24;;;;;;;;;;;23.40;99.90;;;;;;5093084;28;19958;-74
2023/06/25 01:02:53;;;;;;;;;;;23.40;99.90;;;;;;5093366;28;19916;-75
2023/06/25 01:05:38;;;;;;;;;;;23.30;99.90;;;;;;5093802;28;19908;-74
2023/06/25 01:08:08;;;;;;;;;;;23.30;99.90;;;;;;5092948;28;19952;-74
2023/06/25 01:10:37;;;;;;;;;;;23.30;99.90;;;;;;5092573;28;19934;-74
2023/06/25 01:13:04;;;;;;;;;;;23.40;99.90;;;;;;5093009;28;19928;-74
2023/06/25 01:15:29;;;;;;;;;;;23.40;99.90;;;;;;5093246;28;19908;-74
2023/06/25 01:17:57;;;;;;;;;;;23.40;99.90;;;;;;5093258;28;19938;-74
2023/06/25 01:20:24;;;;;;;;;;;23.40;99.90;;;;;;5093627;28;19908;-75
2023/06/25 01:22:50;;;;;;;;;;;23.40;99.90;;;;;;5074968;28;20249;-74
2023/06/25 01:25:17;;;;;;;;;;;23.50;99.90;;;;;;5092975;28;19916;-74
2023/06/25 01:27:43;;;;;;;;;;;23.40;99.90;;;;;;5093367;28;19919;-75
2023/06/25 01:30:10;;;;;;;;;;;23.30;99.90;;;;;;5093033;28;19908;-74
2023/06/25 01:32:36;;;;;;;;;;;23.30;99.90;;;;;;5093002;28;20317;-74
2023/06/25 01:35:02;;;;;;;;;;;23.20;99.90;;;;;;5093267;28;20024;-74
2023/06/25 01:37:28;;;;;;;;;;;23.20;99.90;;;;;;5093035;28;19931;-74
2023/06/25 01:39:55;;;;;;;;;;;23.20;99.90;;;;;;5092928;28;19912;-74
2023/06/25 01:42:21;;;;;;;;;;;23.30;99.90;;;;;;5074765;28;19958;-74
2023/06/25 01:44:47;;;;;;;;;;;23.30;99.90;;;;;;5092997;28;19916;-74
2023/06/25 01:47:13;;;;;;;;;;;23.30;99.90;;;;;;5092978;28;19915;-74
2023/06/25 01:49:39;;;;;;;;;;;23.20;99.90;;;;;;5093149;28;19918;-74
2023/06/25 01:52:05;;;;;;;;;;;23.30;99.90;;;;;;5074894;28;20272;-74
2023/06/25 01:54:31;;;;;;;;;;;23.10;99.90;;;;;;5092701;28;19912;-74
2023/06/25 01:56:57;;;;;;;;;;;23.00;99.90;;;;;;5074572;28;19957;-74
2023/06/25 01:59:23;;;;;;;;;;;22.80;99.90;;;;;;5092764;28;19916;-74
2023/06/25 02:01:48;;;;;;;;;;;22.70;99.90;;;;;;5092802;28;19908;-74
2023/06/25 02:04:14;;;;;;;;;;;22.70;99.90;;;;;;5093045;28;20343;-75
2023/06/25 02:06:40;;;;;;;;;;;22.80;99.90;;;;;;5092782;28;20003;-74
2023/06/25 02:09:07;;;;;;;;;;;22.80;99.90;;;;;;5092572;28;19908;-75
2023/06/25 02:11:33;;;;;;;;;;;22.80;99.90;;;;;;5094895;28;19998;-74
2023/06/25 02:13:59;;;;;;;;;;;22.80;99.90;;;;;;5097041;28;20380;-74
2023/06/25 02:16:25;;;;;;;;;;;22.90;99.90;;;;;;5096495;28;19912;-74
2023/06/25 02:18:53;;;;;;;;;;;23.00;99.90;;;;;;5096896;28;19998;-74
2023/06/25 02:21:19;;;;;;;;;;;23.00;99.90;;;;;;5096606;28;19908;-74
2023/06/25 02:23:45;;;;;;;;;;;23.00;99.90;;;;;;5096207;28;19908;-75
2023/06/25 02:26:11;;;;;;;;;;;23.00;99.90;;;;;;5078100;28;19908;-74
2023/06/25 02:28:37;;;;;;;;;;;23.00;99.90;;;;;;5096495;28;19954;-74
2023/06/25 02:31:02;;;;;;;;;;;23.00;99.90;;;;;;5096536;28;19908;-75
2023/06/25 02:33:28;;;;;;;;;;;23.00;99.90;;;;;;5077799;28;20003;-74
2023/06/25 02:35:54;;;;;;;;;;;22.90;99.90;;;;;;5096627;28;20264;-74
2023/06/25 02:38:20;;;;;;;;;;;22.90;99.90;;;;;;5096141;28;19915;-75
2023/06/25 02:40:46;;;;;;;;;;;22.90;99.90;;;;;;5095886;28;19908;-74
2023/06/25 02:43:12;;;;;;;;;;;23.00;99.90;;;;;;5077708;28;19908;-75
2023/06/25 02:45:38;;;;;;;;;;;22.90;99.90;;;;;;5095954;28;19908;-75
2023/06/25 02:48:04;;;;;;;;;;;22.90;99.90;;;;;;5096154;28;20302;-75
2023/06/25 02:50:30;;;;;;;;;;;22.90;99.90;;;;;;5095876;28;20389;-74
2023/06/25 02:52:56;;;;;;;;;;;22.90;99.90;;;;;;5096300;28;19916;-74
2023/06/25 02:55:21;;;;;;;;;;;22.80;99.90;;;;;;5095659;28;19908;-74
2023/06/25 02:57:47;;;;;;;;;;;22.80;99.90;;;;;;5096274;28;19908;-74
2023/06/25 03:00:13;;;;;;;;;;;22.80;99.90;;;;;;5077560;28;19948;-74
2023/06/25 03:02:39;;;;;;;;;;;22.80;99.90;;;;;;5077371;28;19966;-74
2023/06/25 03:05:05;;;;;;;;;;;22.80;99.90;;;;;;5095560;28;19908;-74
2023/06/25 03:07:31;;;;;;;;;;;22.80;99.90;;;;;;5077336;28;19999;-76
2023/06/25 03:09:56;;;;;;;;;;;22.80;99.90;;;;;;5095570;28;19944;-74
2023/06/25 03:12:22;;;;;;;;;;;22.90;99.90;;;;;;5076968;28;20288;-74
2023/06/25 03:14:48;;;;;;;;;;;22.90;99.90;;;;;;5095766;28;19908;-74
2023/06/25 03:17:14;;;;;;;;;;;22.90;99.90;;;;;;5095685;28;19913;-74
2023/06/25 03:19:40;;;;;;;;;;;22.90;99.90;;;;;;5095515;28;19915;-74
2023/06/25 03:22:06;;;;;;;;;;;22.80;99.90;;;;;;5094819;28;20244;-74
2023/06/25 03:24:32;;;;;;;;;;;22.80;99.90;;;;;;5095069;28;20356;-74
2023/06/25 03:26:58;;;;;;;;;;;22.80;99.90;;;;;;5094641;28;19930;-74
2023/06/25 03:29:23;;;;;;;;;;;22.70;99.90;;;;;;5095179;28;19919;-74
2023/06/25 03:31:49;;;;;;;;;;;22.80;99.90;;;;;;5095041;28;20257;-71
2023/06/25 03:34:15;;;;;;;;;;;22.70;99.90;;;;;;5076718;28;20003;-74
2023/06/25 03:36:41;;;;;;;;;;;22.70;99.90;;;;;;5095232;28;20271;-72
2023/06/25 03:39:07;;;;;;;;;;;22.70;99.90;;;;;;5076577;28;20069;-74
2023/06/25 03:41:32;;;;;;;;;;;22.70;99.90;;;;;;5094820;28;19908;-74
2023/06/25 03:43:58;;;;;;;;;;;22.70;99.90;;;;;;5094853;28;19908;-74
2023/06/25 03:46:24;;;;;;;;;;;22.70;99.90;;;;;;5094714;28;19912;-72
2023/06/25 03:48:50;;;;;;;;;;;22.60;99.90;;;;;;5094836;28;19915;-72
2023/06/25 03:51:16;;;;;;;;;;;22.50;99.90;;;;;;5094747;28;19908;-72
2023/06/25 03:53:41;;;;;;;;;;;22.50;99.90;;;;;;5094552;28;20346;-72
2023/06/25 03:56:07;;;;;;;;;;;22.60;99.90;;;;;;5076171;28;19915;-72
2023/06/25 03:58:33;;;;;;;;;;;22.70;99.90;;;;;;5094272;28;19926;-73
2023/06/25 04:00:59;;;;;;;;;;;22.70;99.90;;;;;;5094463;28;19915;-73
2023/06/25 04:03:25;;;;;;;;;;;22.70;99.90;;;;;;5094269;28;19909;-73
2023/06/25 04:05:51;;;;;;;;;;;22.80;99.90;;;;;;5094279;28;20257;-74
2023/06/25 04:08:17;;;;;;;;;;;22.90;99.90;;;;;;5076057;28;19954;-73
2023/06/25 04:10:43;;;;;;;;;;;22.90;99.90;;;;;;5075889;28;19984;-73
2023/06/25 04:13:09;;;;;;;;;;;22.90;99.90;;;;;;5093870;28;20318;-73
2023/06/25 04:15:35;;;;;;;;;;;22.90;99.90;;;;;;5094158;28;19908;-73
2023/06/25 04:18:01;;;;;;;;;;;22.90;99.90;;;;;;5094070;28;19981;-73
2023/06/25 04:20:27;;;;;;;;;;;22.90;99.90;;;;;;5094001;28;19908;-74
2023/06/25 04:22:54;;;;;;;;;;;22.90;99.90;;;;;;5094448;28;19910;-73
2023/06/25 04:25:20;;;;;;;;;;;22.90;99.90;;;;;;5093208;28;20301;-73
2023/06/25 04:27:46;;;;;;;;;;;22.90;99.90;;;;;;5094193;28;19912;-73
2023/06/25 04:30:12;;;;;;;;;;;23.00;99.90;;;;;;5093881;28;19915;-73
2023/06/25 04:32:38;;;;;;;;;;;23.00;99.90;;;;;;5093899;28;20270;-73
2023/06/25 04:35:04;;;;;;;;;;;23.10;99.90;;;;;;5093099;28;20082;-74
2023/06/25 04:37:29;;;;;;;;;;;23.10;99.90;;;;;;5094224;28;19926;-73
2023/06/25 04:39:55;;;;;;;;;;;23.20;99.90;;;;;;5093496;28;19912;-74
2023/06/25 04:42:21;;;;;;;;;;;23.30;99.90;;;;;;5093579;28;19915;-74
2023/06/25 04:44:47;;;;;;;;;;;23.40;99.90;;;;;;5093595;28;19931;-74
2023/06/25 04:47:13;;;;;;;;;;;23.40;99.90;;;;;;5093843;28;20228;-73
2023/06/25 04:49:40;;;;;;;;;;;23.40;99.90;;;;;;5093702;28;19943;-73
2023/06/25 04:52:06;;;;;;;;;;;23.30;99.90;;;;;;5075231;28;20312;-73
2023/06/25 04:54:31;;;;;;;;;;;23.40;99.90;;;;;;5093424;28;19929;-74
2023/06/25 04:56:57;;;;;;;;;;;23.40;99.90;;;;;;5093660;28;20279;-74
2023/06/25 04:59:23;;;;;;;;;;;23.40;99.90;;;;;;5093628;28;19991;-73
2023/06/25 05:01:49;;;;;;;;;;;23.70;99.90;;;;;;5093427;28;19908;-73
2023/06/25 05:04:14;;;;;;;;;;;24.60;99.90;;;;;;5093369;28;19977;-74
2023/06/25 05:06:43;;;;;;;;;;;25.90;99.90;;;;;;5093362;28;19961;-74
2023/06/25 05:09:09;;;;;;;;;;;27.10;99.90;;;;;;5093158;28;20240;-74
2023/06/25 05:11:35;;;;;;;;;;;27.90;99.90;;;;;;5093403;28;20010;-74
2023/06/25 05:14:01;;;;;;;;;;;28.80;99.90;;;;;;5093463;28;19970;-74
2023/06/25 05:16:27;;;;;;;;;;;29.40;99.90;;;;;;5093474;28;19951;-74
2023/06/25 05:18:52;;;;;;;;;;;30.20;99.90;;;;;;5093298;28;19908;-74
2023/06/25 05:21:18;;;;;;;;;;;30.60;99.90;;;;;;5074980;28;19987;-74
2023/06/25 05:23:44;;;;;;;;;;;31.20;99.90;;;;;;5093083;28;19919;-74
2023/06/25 05:26:11;;;;;;;;;;;31.30;99.90;;;;;;5092536;28;19915;-75
2023/06/25 05:28:40;;;;;;;;;;;31.70;99.90;;;;;;5074664;28;19914;-76
2023/06/25 05:31:06;;;;;;;;;;;33.30;99.90;;;;;;5093594;28;19995;-75
2023/06/25 05:33:32;;;;;;;;;;;32.60;99.90;;;;;;5074702;28;19917;-75
2023/06/25 05:35:58;;;;;;;;;;;33.00;99.90;;;;;;5092504;28;19950;-74
2023/06/25 05:38:24;;;;;;;;;;;33.50;99.90;;;;;;5092967;28;19908;-74
2023/06/25 05:40:50;;;;;;;;;;;34.20;99.90;;;;;;5092870;28;19908;-74
2023/06/25 05:43:16;;;;;;;;;;;33.20;99.90;;;;;;5092914;28;19908;-74
2023/06/25 05:45:42;;;;;;;;;;;32.40;99.90;;;;;;5095754;28;19915;-74
2023/06/25 05:48:08;;;;;;;;;;;32.70;99.90;;;;;;5097086;28;19908;-74
2023/06/25 05:50:34;;;;;;;;;;;31.90;99.90;;;;;;5097009;28;19912;-74
2023/06/25 05:53:00;;;;;;;;;;;32.10;99.90;;;;;;5096882;28;20356;-74
2023/06/25 05:55:25;;;;;;;;;;;32.90;99.90;;;;;;5096900;28;19934;-74
2023/06/25 05:57:51;;;;;;;;;;;33.40;99.90;;;;;;5097363;28;19943;-74
2023/06/25 06:00:21;;;;;;;;;;;34.30;99.90;;;;;;5097778;28;20337;-74
2023/06/25 06:02:47;;;;;;;;;;;35.80;99.90;;;;;;5096819;28;19908;-75
2023/06/25 06:05:12;;;;;;;;;;;36.40;99.90;;;;;;5096762;28;20356;-75
2023/06/25 06:07:38;;;;;;;;;;;36.60;99.90;;;;;;5097199;28;19908;-75
2023/06/25 06:10:04;;;;;;;;;;;37.50;99.90;;;;;;5096696;28;19912;-74
2023/06/25 06:12:30;;;;;;;;;;;37.60;99.90;;;;;;5096467;28;19927;-75
2023/06/25 06:14:56;;;;;;;;;;;38.90;99.90;;;;;;5096634;28;20409;-74
2023/06/25 06:17:22;;;;;;;;;;;35.80;99.90;;;;;;5096682;28;19908;-74
2023/06/25 06:19:47;;;;;;;;;;;34.20;99.90;;;;;;5096414;28;20288;-73
2023/06/25 06:22:14;;;;;;;;;;;35.00;99.90;;;;;;5096474;28;19909;-73
2023/06/25 06:24:41;;;;;;;;;;;36.00;99.90;;;;;;5077871;28;20030;-73
2023/06/25 06:27:07;;;;;;;;;;;37.50;99.90;;;;;;5096397;28;20268;-73
2023/06/25 06:29:32;;;;;;;;;;;38.00;98.90;;;;;;5096111;28;19909;-73
2023/06/25 06:31:58;;;;;;;;;;;39.50;97.50;;;;;;5096612;28;19915;-73
2023/06/25 06:34:24;;;;;;;;;;;39.80;96.20;;;;;;5096272;28;20416;-73
2023/06/25 06:36:50;;;;;;;;;;;40.80;95.70;;;;;;5077793;28;19908;-74
2023/06/25 06:39:17;;;;;;;;;;;41.20;94.50;;;;;;5095875;28;19908;-73
2023/06/25 06:41:42;;;;;;;;;;;40.60;94.60;;;;;;5096421;28;20348;-74
2023/06/25 06:44:15;;;;;;;;;;;40.40;94.10;;;;;;5095901;28;19908;-73
2023/06/25 06:46:41;;;;;;;;;;;39.80;92.60;;;;;;5096437;28;20275;-73
2023/06/25 06:49:07;;;;;;;;;;;39.20;93.40;;;;;;5095848;28;19915;-73
2023/06/25 06:51:33;;;;;;;;;;;39.00;92.60;;;;;;5095848;28;19912;-74
2023/06/25 06:53:58;;;;;;;;;;;38.70;92.80;;;;;;5096057;28;19922;-73
2023/06/25 06:56:25;;;;;;;;;;;39.00;93.30;;;;;;5095385;28;19980;-72
2023/06/25 06:58:51;;;;;;;;;;;39.00;93.10;;;;;;5095731;28;20358;-73
2023/06/25 07:01:17;;;;;;;;;;;38.60;93.30;;;;;;5095704;28;19951;-73
2023/06/25 07:03:42;;;;;;;;;;;39.80;93.50;;;;;;5095901;28;19946;-72
2023/06/25 07:06:08;;;;;;;;;;;41.00;93.00;;;;;;5095497;28;19908;-73
2023/06/25 07:08:34;;;;;;;;;;;41.50;91.40;;;;;;5095541;28;19912;-73
2023/06/25 07:11:00;;;;;;;;;;;41.50;91.30;;;;;;5095316;28;19916;-74
2023/06/25 07:13:27;;;;;;;;;;;40.60;90.90;;;;;;5095152;28;19920;-73
2023/06/25 07:15:53;;;;;;;;;;;39.90;91.60;;;;;;5095299;28;19912;-74
2023/06/25 07:18:19;;;;;;;;;;;40.90;91.40;;;;;;5095283;28;20333;-74
2023/06/25 07:20:44;;;;;;;;;;;39.60;91.10;;;;;;5095197;28;19922;-74
2023/06/25 07:23:10;;;;;;;;;;;38.30;92.40;;;;;;5095204;28;19908;-73
2023/06/25 07:25:36;;;;;;;;;;;37.30;93.00;;;;;;5095128;28;19908;-73
2023/06/25 07:28:02;;;;;;;;;;;36.40;93.80;;;;;;5095077;28;19908;-73
2023/06/25 07:30:28;;;;;;;;;;;35.80;94.20;;;;;;5095021;28;19908;-73
2023/06/25 07:32:53;;;;;;;;;;;35.20;94.80;;;;;;5094964;28;19916;-73
2023/06/25 07:35:20;;;;;;;;;;;35.10;95.30;;;;;;5095492;28;19920;-74
2023/06/25 07:37:46;;;;;;;;;;;34.50;95.60;;;;;;5095003;28;19912;-73
2023/06/25 07:40:12;;;;;;;;;;;34.00;96.50;;;;;;5094806;28;20315;-74
2023/06/25 07:42:37;;;;;;;;;;;34.30;98.40;;;;;;5076946;28;19908;-73
2023/06/25 07:45:04;;;;;;;;;;;34.60;99.00;;;;;;5076739;28;19920;-74
2023/06/25 07:47:30;;;;;;;;;;;34.60;99.10;;;;;;5076651;28;19908;-73
2023/06/25 07:49:56;;;;;;;;;;;34.50;99.40;;;;;;5094752;28;19909;-73
2023/06/25 07:52:21;;;;;;;;;;;34.70;99.60;;;;;;5076460;28;19923;-73
2023/06/25 07:54:47;;;;;;;;;;;34.50;99.60;;;;;;5094491;28;19912;-73
2023/06/25 07:57:15;;;;;;;;;;;34.10;99.90;;;;;;5094498;28;19954;-73
2023/06/25 07:59:41;;;;;;;;;;;32.60;99.90;;;;;;5094447;28;19912;-74
2023/06/25 08:02:06;;;;;;;;;;;32.70;99.90;;;;;;5095008;28;19973;-73
2023/06/25 08:04:32;;;;;;;;;;;32.90;99.90;;;;;;5094422;28;19998;-73
2023/06/25 08:06:58;;;;;;;;;;;33.00;99.90;;;;;;5094789;28;19908;-73
2023/06/25 08:09:24;;;;;;;;;;;33.20;99.90;;;;;;5094209;28;19909;-73
2023/06/25 08:11:50;;;;;;;;;;;33.10;99.90;;;;;;5094483;28;19916;-73
2023/06/25 08:14:15;;;;;;;;;;;33.40;99.90;;;;;;5094619;28;20348;-74
2023/06/25 08:16:41;;;;;;;;;;;33.70;99.90;;;;;;5094423;28;19915;-74
2023/06/25 08:19:08;;;;;;;;;;;33.70;99.90;;;;;;5094668;28;19908;-73
2023/06/25 08:21:35;;;;;;;;;;;33.60;99.90;;;;;;5094169;28;19908;-73
2023/06/25 08:24:01;;;;;;;;;;;33.00;99.90;;;;;;5094149;28;20383;-74
2023/06/25 08:26:27;;;;;;;;;;;32.90;99.90;;;;;;5076401;28;19908;-74
2023/06/25 08:28:52;;;;;;;;;;;33.30;99.90;;;;;;5093875;28;19908;-71
2023/06/25 08:31:18;;;;;;;;;;;34.10;99.90;;;;;;5093869;28;19908;-73
2023/06/25 08:33:44;;;;;;;;;;;34.50;99.90;;;;;;5093881;28;20421;-73
2023/06/25 08:36:10;;;;;;;;;;;34.30;99.90;;;;;;5093768;28;19999;-73
2023/06/25 08:38:36;;;;;;;;;;;33.70;99.90;;;;;;5093088;28;19953;-73
2023/06/25 08:41:02;;;;;;;;;;;34.20;99.90;;;;;;5075366;28;19908;-73
2023/06/25 08:43:28;;;;;;;;;;;34.50;99.90;;;;;;5094288;28;19923;-73
2023/06/25 08:45:54;;;;;;;;;;;35.00;99.90;;;;;;5093935;28;19908;-73
2023/06/25 08:48:22;;;;;;;;;;;35.00;99.90;;;;;;5093919;28;19973;-73
2023/06/25 08:50:56;;;;;;;;;;;34.30;99.90;;;;;;5093841;28;19990;-73
2023/06/25 08:53:23;;;;;;;;;;;33.60;99.90;;;;;;5094062;28;19916;-74
2023/06/25 08:55:51;;;;;;;;;;;34.00;99.90;;;;;;5093780;28;19916;-74
2023/06/25 08:58:17;;;;;;;;;;;34.00;99.90;;;;;;5093581;28;20356;-73
2023/06/25 09:00:42;;;;;;;;;;;33.40;99.90;;;;;;5094094;28;19915;-74
2023/06/25 09:03:08;;;;;;;;;;;33.20;99.90;;;;;;5093544;28;19908;-74
2023/06/25 09:05:35;;;;;;;;;;;33.10;99.90;;;;;;5093571;28;19909;-74
2023/06/25 09:08:01;;;;;;;;;;;33.10;99.90;;;;;;5093465;28;19931;-74
2023/06/25 09:10:31;;;;;;;;;;;32.80;99.90;;;;;;5093167;28;20053;-74
2023/06/25 09:13:00;;;;;;;;;;;32.50;99.90;;;;;;5093041;28;20382;-74
2023/06/25 09:15:26;;;;;;;;;;;32.20;99.90;;;;;;5093748;28;20365;-74
2023/06/25 09:17:55;;;;;;;;;;;32.20;99.90;;;;;;5093248;28;19912;-74
2023/06/25 09:20:21;;;;;;;;;;;32.30;99.90;;;;;;5093053;28;19987;-74
2023/06/25 09:22:51;;;;;;;;;;;32.50;99.90;;;;;;5093468;28;19908;-76
2023/06/25 09:25:18;;;;;;;;;;;33.10;99.90;;;;;;5093525;28;19908;-74
2023/06/25 09:27:44;;;;;;;;;;;32.90;99.90;;;;;;5093903;28;19908;-75
2023/06/25 09:30:11;;;;;;;;;;;32.70;99.90;;;;;;5093224;28;19943;-75
2023/06/25 09:32:47;;;;;;;;;;;33.10;99.90;;;;;;5093721;28;20286;-75
2023/06/25 09:35:17;;;;;;;;;;;33.50;99.90;;;;;;5093204;28;20003;-75
2023/06/25 09:37:43;;;;;;;;;;;33.20;99.90;;;;;;5093461;28;19923;-74
2023/06/25 09:40:08;;;;;;;;;;;33.10;99.90;;;;;;5092909;28;19908;-75
2023/06/25 09:42:35;;;;;;;;;;;33.20;99.90;;;;;;5093481;28;19947;-74
2023/06/25 09:45:01;;;;;;;;;;;32.60;99.90;;;;;;5093426;28;19934;-75
2023/06/25 09:47:27;;;;;;;;;;;32.80;99.90;;;;;;5093537;28;19908;-74
2023/06/25 09:49:54;;;;;;;;;;;32.90;99.90;;;;;;5093165;28;20349;-75
2023/06/25 09:52:21;;;;;;;;;;;32.80;99.90;;;;;;5092939;28;19908;-75
2023/06/25 09:54:47;;;;;;;;;;;32.10;99.90;;;;;;5093108;28;19960;-74
2023/06/25 09:57:16;;;;;;;;;;;32.00;99.90;;;;;;5093428;28;19912;-74
2023/06/25 09:59:42;;;;;;;;;;;32.10;99.90;;;;;;5092749;28;19930;-73
2023/06/25 10:02:08;;;;;;;;;;;32.10;99.90;;;;;;5092499;28;20020;-73
2023/06/25 10:04:35;;;;;;;;;;;32.30;99.90;;;;;;5092540;28;20380;-73
2023/06/25 10:07:01;;;;;;;;;;;32.20;99.90;;;;;;5092734;28;20353;-73
2023/06/25 10:09:27;;;;;;;;;;;32.30;99.90;;;;;;5092508;28;19912;-73
2023/06/25 10:11:55;;;;;;;;;;;32.20;99.90;;;;;;5092274;28;19927;-73
2023/06/25 10:14:21;;;;;;;;;;;31.90;99.90;;;;;;5092508;28;20003;-73
2023/06/25 10:16:55;;;;;;;;;;;31.80;99.90;;;;;;5093079;28;19954;-73
2023/06/25 10:19:22;;;;;;;;;;;31.90;99.90;;;;;;5092982;28;19947;-73
2023/06/25 10:22:03;;;;;;;;;;;31.50;99.90;;;;;;5092709;28;19909;-77
2023/06/25 10:24:38;;;;;;;;;;;31.40;99.90;;;;;;5074330;28;19953;-78
2023/06/25 10:27:04;;;;;;;;;;;31.90;99.90;;;;;;5093800;28;20394;-76
2023/06/25 10:29:40;;;;;;;;;;;32.30;99.90;;;;;;5093640;28;19912;-76
2023/06/25 10:32:06;;;;;;;;;;;32.30;99.90;;;;;;5075568;28;19912;-77
2023/06/25 10:34:35;;;;;;;;;;;32.60;99.90;;;;;;5096048;28;19922;-77
2023/06/25 10:37:03;;;;;;;;;;;32.70;99.90;;;;;;5095926;28;20011;-73
2023/06/25 10:39:38;;;;;;;;;;;32.30;99.90;;;;;;5095838;28;19924;-73
2023/06/25 10:42:04;;;;;;;;;;;32.40;99.90;;;;;;5096034;28;20276;-73
2023/06/25 10:44:30;;;;;;;;;;;32.30;99.90;;;;;;5095840;28;19966;-73
2023/06/25 10:47:03;;;;;;;;;;;31.70;99.90;;;;;;5095913;28;19908;-74
2023/06/25 10:49:29;;;;;;;;;;;31.40;99.90;;;;;;5096267;28;20011;-73
2023/06/25 10:51:58;;;;;;;;;;;31.50;99.90;;;;;;5096037;28;19947;-73
2023/06/25 10:54:24;;;;;;;;;;;31.90;99.90;;;;;;5077634;28;19916;-74
2023/06/25 10:56:53;;;;;;;;;;;31.90;99.90;;;;;;5095679;28;19942;-74
2023/06/25 10:59:22;;;;;;;;;;;32.10;99.90;;;;;;5095965;28;19995;-73
2023/06/25 11:01:49;;;;;;;;;;;32.00;99.90;;;;;;5095626;28;20094;-74
2023/06/25 11:04:15;;;;;;;;;;;31.60;99.90;;;;;;5095522;28;19912;-74
2023/06/25 11:06:41;;;;;;;;;;;31.70;99.90;;;;;;5096121;28;19996;-73
2023/06/25 11:09:07;;;;;;;;;;;31.50;99.90;;;;;;5095492;28;19909;-73
2023/06/25 11:11:32;;;;;;;;;;;31.40;99.90;;;;;;5095207;28;19916;-74
2023/06/25 11:14:00;;;;;;;;;;;31.80;99.90;;;;;;5095918;28;19916;-74
2023/06/25 11:16:25;;;;;;;;;;;31.70;99.90;;;;;;5095720;28;19912;-73
2023/06/25 11:18:51;;;;;;;;;;;31.00;99.90;;;;;;5095936;28;20363;-74
2023/06/25 11:21:17;;;;;;;;;;;30.90;99.90;;;;;;5095362;28;19915;-73
2023/06/25 11:23:44;;;;;;;;;;;31.00;99.90;;;;;;5095337;28;19908;-74
2023/06/25 11:26:12;;;;;;;;;;;31.50;99.90;;;;;;5095061;28;19931;-74
2023/06/25 11:28:38;;;;;;;;;;;31.60;99.90;;;;;;5095224;28;20318;-73
2023/06/25 11:31:04;;;;;;;;;;;31.90;99.90;;;;;;5095140;28;19908;-73
2023/06/25 11:33:30;;;;;;;;;;;32.00;99.90;;;;;;5094857;28;19916;-73
2023/06/25 11:36:09;;;;;;;;;;;32.40;99.90;;;;;;5094949;28;19912;-74
2023/06/25 11:38:35;;;;;;;;;;;32.20;99.90;;;;;;5094832;28;19919;-73
2023/06/25 11:41:01;;;;;;;;;;;32.40;99.90;;;;;;5094599;28;20015;-74
2023/06/25 11:43:27;;;;;;;;;;;32.40;99.90;;;;;;5076154;28;20313;-74
2023/06/25 11:45:58;;;;;;;;;;;32.60;99.90;;;;;;5094749;28;19915;-73
2023/06/25 11:48:24;;;;;;;;;;;32.60;99.90;;;;;;5095036;28;20360;-73
2023/06/25 11:50:52;;;;;;;;;;;32.70;99.90;;;;;;5094686;28;19909;-73
2023/06/25 11:53:17;;;;;;;;;;;32.80;99.90;;;;;;5094822;28;19916;-73
2023/06/25 11:55:43;;;;;;;;;;;32.50;99.90;;;;;;5094405;28;19931;-74
2023/06/25 11:58:09;;;;;;;;;;;32.40;99.90;;;;;;5094826;28;19915;-74
2023/06/25 12:00:35;;;;;;;;;;;32.20;99.90;;;;;;5094552;28;20402;-73
2023/06/25 12:03:01;;;;;;;;;;;32.20;99.90;;;;;;5094910;28;19999;-74
2023/06/25 12:05:27;;;;;;;;;;;32.00;99.90;;;;;;5094576;28;19931;-73
2023/06/25 12:07:53;;;;;;;;;;;31.70;99.90;;;;;;5094672;28;19908;-73
2023/06/25 12:10:18;;;;;;;;;;;31.90;99.90;;;;;;5075968;28;19951;-73
2023/06/25 12:12:45;;;;;;;;;;;31.90;99.90;;;;;;5094155;28;20030;-73
2023/06/25 12:15:11;;;;;;;;;;;32.50;99.90;;;;;;5094428;28;19940;-74
2023/06/25 12:17:37;;;;;;;;;;;32.80;99.90;;;;;;5094388;28;19991;-74
2023/06/25 12:20:04;;;;;;;;;;;32.90;99.90;;;;;;5075884;28;20002;-74
2023/06/25 12:22:30;;;;;;;;;;;33.10;99.90;;;;;;5094131;28;19908;-74
2023/06/25 12:24:56;;;;;;;;;;;33.30;99.90;;;;;;5094209;28;19943;-74
2023/06/25 12:27:22;;;;;;;;;;;32.70;99.90;;;;;;5094431;28;19908;-73
2023/06/25 12:29:48;;;;;;;;;;;32.80;99.90;;;;;;5093969;28;19908;-73
2023/06/25 12:32:13;;;;;;;;;;;33.10;99.90;;;;;;5093850;28;19908;-73
2023/06/25 12:34:39;;;;;;;;;;;33.20;99.90;;;;;;5093836;28;19908;-74
2023/06/25 12:37:05;;;;;;;;;;;33.10;99.90;;;;;;5093872;28;19912;-73
2023/06/25 12:39:31;;;;;;;;;;;32.90;99.90;;;;;;5093739;28;20388;-73
2023/06/25 12:41:57;;;;;;;;;;;32.60;99.90;;;;;;5094254;28;19908;-74
2023/06/25 12:44:23;;;;;;;;;;;32.50;99.90;;;;;;5093675;28;19908;-74
2023/06/25 12:46:49;;;;;;;;;;;32.80;99.90;;;;;;5093949;28;20352;-74
2023/06/25 12:49:15;;;;;;;;;;;32.90;99.90;;;;;;5093899;28;19908;-74
2023/06/25 12:51:40;;;;;;;;;;;33.00;99.90;;;;;;5093945;28;19912;-75
2023/06/25 12:54:06;;;;;;;;;;;33.00;99.90;;;;;;5092996;28;19962;-73
2023/06/25 12:56:32;;;;;;;;;;;33.10;99.90;;;;;;5093110;28;19908;-74
2023/06/25 12:58:58;;;;;;;;;;;33.20;99.90;;;;;;5093475;28;20221;-75
2023/06/25 13:01:24;;;;;;;;;;;33.40;99.90;;;;;;5093927;28;20368;-74
2023/06/25 13:03:49;;;;;;;;;;;33.30;99.90;;;;;;5093233;28;19909;-74
2023/06/25 13:06:15;;;;;;;;;;;33.10;99.90;;;;;;5093490;28;20321;-74
2023/06/25 13:08:41;;;;;;;;;;;33.40;99.90;;;;;;5093302;28;20011;-74
2023/06/25 13:11:07;;;;;;;;;;;33.50;99.90;;;;;;5074717;28;19912;-74
2023/06/25 13:13:36;;;;;;;;;;;33.50;99.90;;;;;;5092889;28;20329;-74
2023/06/25 13:16:02;;;;;;;;;;;33.10;99.90;;;;;;5093224;28;19920;-74
2023/06/25 13:18:27;;;;;;;;;;;33.30;99.90;;;;;;5093310;28;19908;-73
2023/06/25 13:20:53;;;;;;;;;;;33.10;99.90;;;;;;5093199;28;19909;-74
2023/06/25 13:23:19;;;;;;;;;;;32.80;99.90;;;;;;5093740;28;19909;-75
2023/06/25 13:25:45;;;;;;;;;;;33.10;99.90;;;;;;5074845;28;19912;-74
2023/06/25 13:28:11;;;;;;;;;;;33.30;99.90;;;;;;5093692;28;19908;-74
2023/06/25 13:30:36;;;;;;;;;;;33.20;99.90;;;;;;5093386;28;19916;-73
2023/06/25 13:33:02;;;;;;;;;;;33.30;99.90;;;;;;5074770;28;19988;-74
2023/06/25 13:35:28;;;;;;;;;;;33.50;99.90;;;;;;5074705;28;19908;-74
2023/06/25 13:37:54;;;;;;;;;;;33.70;99.90;;;;;;5074765;28;19915;-74
2023/06/25 13:40:20;;;;;;;;;;;33.90;99.90;;;;;;5092726;28;19908;-74
2023/06/25 13:42:46;;;;;;;;;;;33.80;99.90;;;;;;5093418;28;19999;-74
2023/06/25 13:45:12;;;;;;;;;;;33.60;99.90;;;;;;5074821;28;19992;-74
2023/06/25 13:47:37;;;;;;;;;;;33.40;99.90;;;;;;5093414;28;20264;-74
2023/06/25 13:50:03;;;;;;;;;;;33.10;99.90;;;;;;5093202;28;19948;-74
2023/06/25 13:52:29;;;;;;;;;;;33.30;99.90;;;;;;5092801;28;19908;-74
2023/06/25 13:54:55;;;;;;;;;;;33.50;99.90;;;;;;5093177;28;20356;-75
2023/06/25 13:57:21;;;;;;;;;;;33.50;99.90;;;;;;5093177;28;19951;-74
2023/06/25 13:59:47;;;;;;;;;;;33.60;99.90;;;;;;5092880;28;19908;-74
2023/06/25 14:02:12;;;;;;;;;;;33.80;99.90;;;;;;5074735;28;19912;-74
2023/06/25 14:04:38;;;;;;;;;;;33.80;99.90;;;;;;5092835;28;19961;-75
2023/06/25 14:07:04;;;;;;;;;;;33.40;99.90;;;;;;5095382;28;19908;-74
2023/06/25 14:09:30;;;;;;;;;;;33.40;99.90;;;;;;5097065;28;20231;-74
2023/06/25 14:11:56;;;;;;;;;;;33.10;99.90;;;;;;5078308;28;19931;-74